sensor_id;sensor_type;location;lat;lon;timestamp;P1;durP1;ratioP1;P2;durP2;ratioP2
49544;SDS011;74870;42.636;23.302;2024-02-16T00:00:47;4.90;;;4.30;;
49544;SDS011;74870;42.636;23.302;2024-02-16T00:03:12;5.07;;;4.10;;
49544;SDS011;74870;42.636;23.302;2024-02-16T00:05:38;3.97;;;3.67;;
49544;SDS011;74870;42.636;23.302;2024-02-16T00:08:03;12.07;;;8.07;;
49544;SDS011;74870;42.636;23.302;2024-02-16T00:10:29;12.13;;;9.30;;
49544;SDS011;74870;42.636;23.302;2024-02-16T00:12:55;33.30;;;24.47;;
49544;SDS011;74870;42.636;23.302;2024-02-16T00:15:21;22.10;;;17.23;;
49544;SDS011;74870;42.636;23.302;2024-02-16T00:17:47;17.67;;;14.40;;
49544;SDS011;74870;42.636;23.302;2024-02-16T00:20:13;16.37;;;12.27;;
49544;SDS011;74870;42.636;23.302;2024-02-16T00:22:38;10.83;;;9.43;;
49544;SDS011;74870;42.636;23.302;2024-02-16T00:25:04;9.23;;;6.13;;
49544;SDS011;74870;42.636;23.302;2024-02-16T00:27:29;6.10;;;5.50;;
49544;SDS011;74870;42.636;23.302;2024-02-16T00:29:55;5.77;;;5.00;;
49544;SDS011;74870;42.636;23.302;2024-02-16T00:32:20;5.30;;;4.80;;
49544;SDS011;74870;42.636;23.302;2024-02-16T00:34:48;7.67;;;5.40;;
49544;SDS011;74870;42.636;23.302;2024-02-16T00:37:17;7.03;;;6.00;;
49544;SDS011;74870;42.636;23.302;2024-02-16T00:39:42;9.90;;;6.90;;
49544;SDS011;74870;42.636;23.302;2024-02-16T00:42:08;9.40;;;7.00;;
49544;SDS011;74870;42.636;23.302;2024-02-16T00:44:34;8.57;;;7.10;;
49544;SDS011;74870;42.636;23.302;2024-02-16T00:47:00;9.00;;;7.57;;
49544;SDS011;74870;42.636;23.302;2024-02-16T00:49:25;10.23;;;7.90;;
49544;SDS011;74870;42.636;23.302;2024-02-16T00:51:50;10.30;;;6.90;;
49544;SDS011;74870;42.636;23.302;2024-02-16T00:54:16;9.50;;;7.50;;
49544;SDS011;74870;42.636;23.302;2024-02-16T00:56:42;9.10;;;7.27;;
49544;SDS011;74870;42.636;23.302;2024-02-16T00:59:08;9.20;;;6.90;;
49544;SDS011;74870;42.636;23.302;2024-02-16T01:01:34;8.50;;;6.70;;
49544;SDS011;74870;42.636;23.302;2024-02-16T01:04:01;7.23;;;6.37;;
49544;SDS011;74870;42.636;23.302;2024-02-16T01:06:27;7.47;;;6.50;;
49544;SDS011;74870;42.636;23.302;2024-02-16T01:08:52;6.40;;;5.80;;
49544;SDS011;74870;42.636;23.302;2024-02-16T01:11:18;6.60;;;5.90;;
49544;SDS011;74870;42.636;23.302;2024-02-16T01:13:45;6.43;;;5.40;;
49544;SDS011;74870;42.636;23.302;2024-02-16T01:16:11;7.03;;;5.63;;
49544;SDS011;74870;42.636;23.302;2024-02-16T01:18:37;5.47;;;4.97;;
49544;SDS011;74870;42.636;23.302;2024-02-16T01:21:02;4.70;;;4.27;;
49544;SDS011;74870;42.636;23.302;2024-02-16T01:23:30;4.57;;;4.07;;
49544;SDS011;74870;42.636;23.302;2024-02-16T01:25:56;3.80;;;3.50;;
49544;SDS011;74870;42.636;23.302;2024-02-16T01:28:21;4.67;;;3.53;;
49544;SDS011;74870;42.636;23.302;2024-02-16T01:30:48;4.07;;;3.13;;
49544;SDS011;74870;42.636;23.302;2024-02-16T01:33:13;2.80;;;2.60;;
49544;SDS011;74870;42.636;23.302;2024-02-16T01:35:39;2.83;;;2.63;;
49544;SDS011;74870;42.636;23.302;2024-02-16T01:38:05;2.50;;;2.40;;
49544;SDS011;74870;42.636;23.302;2024-02-16T01:40:30;2.83;;;2.60;;
49544;SDS011;74870;42.636;23.302;2024-02-16T01:42:56;2.73;;;2.60;;
49544;SDS011;74870;42.636;23.302;2024-02-16T01:45:22;3.30;;;3.10;;
49544;SDS011;74870;42.636;23.302;2024-02-16T01:47:48;2.93;;;2.73;;
49544;SDS011;74870;42.636;23.302;2024-02-16T01:50:16;2.40;;;2.30;;
49544;SDS011;74870;42.636;23.302;2024-02-16T01:52:46;2.43;;;2.23;;
49544;SDS011;74870;42.636;23.302;2024-02-16T01:55:13;2.40;;;2.30;;
49544;SDS011;74870;42.636;23.302;2024-02-16T01:57:39;2.60;;;2.40;;
49544;SDS011;74870;42.636;23.302;2024-02-16T02:00:07;2.50;;;2.37;;
49544;SDS011;74870;42.636;23.302;2024-02-16T02:02:36;2.57;;;2.40;;
49544;SDS011;74870;42.636;23.302;2024-02-16T02:05:02;2.80;;;2.60;;
49544;SDS011;74870;42.636;23.302;2024-02-16T02:07:28;2.47;;;2.37;;
49544;SDS011;74870;42.636;23.302;2024-02-16T02:09:54;2.70;;;2.50;;
49544;SDS011;74870;42.636;23.302;2024-02-16T02:12:20;2.63;;;2.53;;
49544;SDS011;74870;42.636;23.302;2024-02-16T02:14:46;2.87;;;2.67;;
49544;SDS011;74870;42.636;23.302;2024-02-16T02:17:12;3.20;;;2.90;;
49544;SDS011;74870;42.636;23.302;2024-02-16T02:19:37;2.73;;;2.63;;
49544;SDS011;74870;42.636;23.302;2024-02-16T02:22:03;3.07;;;2.77;;
49544;SDS011;74870;42.636;23.302;2024-02-16T02:24:29;2.97;;;2.77;;
49544;SDS011;74870;42.636;23.302;2024-02-16T02:26:54;3.93;;;3.63;;
49544;SDS011;74870;42.636;23.302;2024-02-16T02:29:20;3.70;;;3.40;;
49544;SDS011;74870;42.636;23.302;2024-02-16T02:31:45;3.67;;;3.37;;
49544;SDS011;74870;42.636;23.302;2024-02-16T02:34:11;3.70;;;3.40;;
49544;SDS011;74870;42.636;23.302;2024-02-16T02:36:36;4.03;;;3.37;;
49544;SDS011;74870;42.636;23.302;2024-02-16T02:39:01;3.07;;;2.87;;
49544;SDS011;74870;42.636;23.302;2024-02-16T02:41:27;3.53;;;3.23;;
49544;SDS011;74870;42.636;23.302;2024-02-16T02:43:52;3.30;;;3.00;;
49544;SDS011;74870;42.636;23.302;2024-02-16T02:46:18;3.13;;;2.83;;
49544;SDS011;74870;42.636;23.302;2024-02-16T02:48:44;3.30;;;3.00;;
49544;SDS011;74870;42.636;23.302;2024-02-16T02:51:11;2.80;;;2.60;;
49544;SDS011;74870;42.636;23.302;2024-02-16T02:53:36;3.00;;;2.80;;
49544;SDS011;74870;42.636;23.302;2024-02-16T02:56:02;2.93;;;2.70;;
49544;SDS011;74870;42.636;23.302;2024-02-16T02:58:28;2.67;;;2.50;;
49544;SDS011;74870;42.636;23.302;2024-02-16T03:00:54;2.60;;;2.50;;
49544;SDS011;74870;42.636;23.302;2024-02-16T03:03:20;2.53;;;2.40;;
49544;SDS011;74870;42.636;23.302;2024-02-16T03:05:46;2.50;;;2.30;;
49544;SDS011;74870;42.636;23.302;2024-02-16T03:08:12;2.90;;;2.40;;
49544;SDS011;74870;42.636;23.302;2024-02-16T03:10:37;2.40;;;2.30;;
49544;SDS011;74870;42.636;23.302;2024-02-16T03:13:04;2.73;;;2.53;;
49544;SDS011;74870;42.636;23.302;2024-02-16T03:15:31;2.40;;;2.30;;
49544;SDS011;74870;42.636;23.302;2024-02-16T03:17:58;2.80;;;2.40;;
49544;SDS011;74870;42.636;23.302;2024-02-16T03:20:24;2.30;;;2.20;;
49544;SDS011;74870;42.636;23.302;2024-02-16T03:22:49;2.30;;;2.20;;
49544;SDS011;74870;42.636;23.302;2024-02-16T03:25:14;2.30;;;2.20;;
49544;SDS011;74870;42.636;23.302;2024-02-16T03:27:40;2.50;;;2.30;;
49544;SDS011;74870;42.636;23.302;2024-02-16T03:30:06;2.40;;;2.30;;
49544;SDS011;74870;42.636;23.302;2024-02-16T03:32:33;2.60;;;2.50;;
49544;SDS011;74870;42.636;23.302;2024-02-16T03:34:58;2.50;;;2.30;;
49544;SDS011;74870;42.636;23.302;2024-02-16T03:37:24;2.47;;;2.27;;
49544;SDS011;74870;42.636;23.302;2024-02-16T03:39:50;2.40;;;2.30;;
49544;SDS011;74870;42.636;23.302;2024-02-16T03:42:15;2.17;;;2.07;;
49544;SDS011;74870;42.636;23.302;2024-02-16T03:44:43;2.57;;;2.40;;
49544;SDS011;74870;42.636;23.302;2024-02-16T03:47:09;2.50;;;2.30;;
49544;SDS011;74870;42.636;23.302;2024-02-16T03:49:34;2.53;;;2.40;;
49544;SDS011;74870;42.636;23.302;2024-02-16T03:52:01;2.50;;;2.40;;
49544;SDS011;74870;42.636;23.302;2024-02-16T03:54:26;2.50;;;2.40;;
49544;SDS011;74870;42.636;23.302;2024-02-16T03:56:53;2.77;;;2.50;;
49544;SDS011;74870;42.636;23.302;2024-02-16T03:59:18;2.50;;;2.40;;
49544;SDS011;74870;42.636;23.302;2024-02-16T04:01:44;3.00;;;2.80;;
49544;SDS011;74870;42.636;23.302;2024-02-16T04:04:10;2.77;;;2.67;;
49544;SDS011;74870;42.636;23.302;2024-02-16T04:06:35;2.50;;;2.40;;
49544;SDS011;74870;42.636;23.302;2024-02-16T04:09:01;2.70;;;2.60;;
49544;SDS011;74870;42.636;23.302;2024-02-16T04:11:27;2.43;;;2.33;;
49544;SDS011;74870;42.636;23.302;2024-02-16T04:13:54;2.70;;;2.50;;
49544;SDS011;74870;42.636;23.302;2024-02-16T04:16:19;2.93;;;2.73;;
49544;SDS011;74870;42.636;23.302;2024-02-16T04:18:47;2.47;;;2.37;;
49544;SDS011;74870;42.636;23.302;2024-02-16T04:21:12;2.80;;;2.60;;
49544;SDS011;74870;42.636;23.302;2024-02-16T04:23:38;2.67;;;2.47;;
49544;SDS011;74870;42.636;23.302;2024-02-16T04:26:03;2.53;;;2.33;;
49544;SDS011;74870;42.636;23.302;2024-02-16T04:28:31;2.60;;;2.50;;
49544;SDS011;74870;42.636;23.302;2024-02-16T04:30:57;2.60;;;2.40;;
49544;SDS011;74870;42.636;23.302;2024-02-16T04:33:22;2.47;;;2.37;;
49544;SDS011;74870;42.636;23.302;2024-02-16T04:35:48;2.67;;;2.40;;
49544;SDS011;74870;42.636;23.302;2024-02-16T04:38:15;2.40;;;2.30;;
49544;SDS011;74870;42.636;23.302;2024-02-16T04:40:41;2.50;;;2.40;;
49544;SDS011;74870;42.636;23.302;2024-02-16T04:43:06;3.30;;;3.00;;
49544;SDS011;74870;42.636;23.302;2024-02-16T04:45:32;2.83;;;2.60;;
49544;SDS011;74870;42.636;23.302;2024-02-16T04:47:57;3.80;;;3.50;;
49544;SDS011;74870;42.636;23.302;2024-02-16T04:50:24;3.53;;;3.33;;
49544;SDS011;74870;42.636;23.302;2024-02-16T04:52:49;5.23;;;4.90;;
49544;SDS011;74870;42.636;23.302;2024-02-16T04:55:14;3.00;;;2.80;;
49544;SDS011;74870;42.636;23.302;2024-02-16T04:57:40;3.10;;;2.97;;
49544;SDS011;74870;42.636;23.302;2024-02-16T05:00:06;3.93;;;3.70;;
49544;SDS011;74870;42.636;23.302;2024-02-16T05:02:34;3.97;;;3.60;;
49544;SDS011;74870;42.636;23.302;2024-02-16T05:04:59;4.17;;;3.77;;
49544;SDS011;74870;42.636;23.302;2024-02-16T05:07:25;3.27;;;3.07;;
49544;SDS011;74870;42.636;23.302;2024-02-16T05:09:50;3.43;;;3.13;;
49544;SDS011;74870;42.636;23.302;2024-02-16T05:12:20;8.47;;;7.87;;
49544;SDS011;74870;42.636;23.302;2024-02-16T05:14:50;4.53;;;4.17;;
49544;SDS011;74870;42.636;23.302;2024-02-16T05:17:16;3.27;;;2.97;;
49544;SDS011;74870;42.636;23.302;2024-02-16T05:19:41;3.53;;;3.27;;
49544;SDS011;74870;42.636;23.302;2024-02-16T05:22:07;3.47;;;3.23;;
49544;SDS011;74870;42.636;23.302;2024-02-16T05:24:32;3.27;;;3.07;;
49544;SDS011;74870;42.636;23.302;2024-02-16T05:26:58;3.40;;;3.10;;
49544;SDS011;74870;42.636;23.302;2024-02-16T05:29:24;3.00;;;2.80;;
49544;SDS011;74870;42.636;23.302;2024-02-16T05:31:52;3.40;;;3.10;;
49544;SDS011;74870;42.636;23.302;2024-02-16T05:34:18;3.60;;;3.33;;
49544;SDS011;74870;42.636;23.302;2024-02-16T05:36:43;3.83;;;3.53;;
49544;SDS011;74870;42.636;23.302;2024-02-16T05:39:10;5.73;;;3.70;;
49544;SDS011;74870;42.636;23.302;2024-02-16T05:41:45;4.40;;;4.10;;
49544;SDS011;74870;42.636;23.302;2024-02-16T05:44:12;7.57;;;4.90;;
49544;SDS011;74870;42.636;23.302;2024-02-16T05:46:38;5.23;;;4.73;;
49544;SDS011;74870;42.636;23.302;2024-02-16T05:49:04;5.47;;;4.97;;
49544;SDS011;74870;42.636;23.302;2024-02-16T05:51:36;5.70;;;4.70;;
49544;SDS011;74870;42.636;23.302;2024-02-16T05:54:02;6.50;;;4.60;;
49544;SDS011;74870;42.636;23.302;2024-02-16T05:56:28;5.50;;;5.00;;
49544;SDS011;74870;42.636;23.302;2024-02-16T05:58:53;5.03;;;4.53;;
49544;SDS011;74870;42.636;23.302;2024-02-16T06:01:19;5.83;;;5.33;;
49544;SDS011;74870;42.636;23.302;2024-02-16T06:03:44;9.27;;;5.60;;
49544;SDS011;74870;42.636;23.302;2024-02-16T06:06:10;7.43;;;5.80;;
49544;SDS011;74870;42.636;23.302;2024-02-16T06:08:35;8.93;;;6.47;;
49544;SDS011;74870;42.636;23.302;2024-02-16T06:11:01;7.10;;;6.40;;
49544;SDS011;74870;42.636;23.302;2024-02-16T06:13:27;8.93;;;6.77;;
49544;SDS011;74870;42.636;23.302;2024-02-16T06:15:54;8.37;;;6.60;;
49544;SDS011;74870;42.636;23.302;2024-02-16T06:18:21;8.80;;;7.93;;
49544;SDS011;74870;42.636;23.302;2024-02-16T06:20:46;16.47;;;12.60;;
49544;SDS011;74870;42.636;23.302;2024-02-16T06:23:12;10.00;;;8.87;;
49544;SDS011;74870;42.636;23.302;2024-02-16T06:25:37;6.70;;;6.00;;
49544;SDS011;74870;42.636;23.302;2024-02-16T06:28:02;9.47;;;6.90;;
49544;SDS011;74870;42.636;23.302;2024-02-16T06:30:29;7.13;;;6.43;;
49544;SDS011;74870;42.636;23.302;2024-02-16T06:32:55;8.10;;;7.30;;
49544;SDS011;74870;42.636;23.302;2024-02-16T06:35:20;7.77;;;7.07;;
49544;SDS011;74870;42.636;23.302;2024-02-16T06:37:46;8.03;;;7.30;;
49544;SDS011;74870;42.636;23.302;2024-02-16T06:40:11;8.23;;;7.53;;
49544;SDS011;74870;42.636;23.302;2024-02-16T06:42:37;10.00;;;9.00;;
49544;SDS011;74870;42.636;23.302;2024-02-16T06:45:03;8.20;;;7.40;;
49544;SDS011;74870;42.636;23.302;2024-02-16T06:47:30;7.13;;;6.53;;
49544;SDS011;74870;42.636;23.302;2024-02-16T06:49:56;6.40;;;5.90;;
49544;SDS011;74870;42.636;23.302;2024-02-16T06:52:22;9.47;;;7.47;;
49544;SDS011;74870;42.636;23.302;2024-02-16T06:54:47;8.20;;;6.70;;
49544;SDS011;74870;42.636;23.302;2024-02-16T06:57:14;6.87;;;6.17;;
49544;SDS011;74870;42.636;23.302;2024-02-16T06:59:39;7.37;;;6.00;;
49544;SDS011;74870;42.636;23.302;2024-02-16T07:02:05;8.87;;;6.47;;
49544;SDS011;74870;42.636;23.302;2024-02-16T07:04:31;10.87;;;7.37;;
49544;SDS011;74870;42.636;23.302;2024-02-16T07:06:57;13.23;;;7.60;;
49544;SDS011;74870;42.636;23.302;2024-02-16T07:09:22;11.23;;;8.43;;
49544;SDS011;74870;42.636;23.302;2024-02-16T07:11:48;15.57;;;9.07;;
49544;SDS011;74870;42.636;23.302;2024-02-16T07:14:15;15.27;;;9.50;;
49544;SDS011;74870;42.636;23.302;2024-02-16T07:16:40;12.93;;;8.30;;
49544;SDS011;74870;42.636;23.302;2024-02-16T07:19:06;11.13;;;7.83;;
49544;SDS011;74870;42.636;23.302;2024-02-16T07:21:31;12.83;;;8.57;;
49544;SDS011;74870;42.636;23.302;2024-02-16T07:23:57;11.60;;;8.50;;
49544;SDS011;74870;42.636;23.302;2024-02-16T07:26:22;12.93;;;8.33;;
49544;SDS011;74870;42.636;23.302;2024-02-16T07:28:48;16.23;;;8.33;;
49544;SDS011;74870;42.636;23.302;2024-02-16T07:31:13;11.83;;;8.10;;
49544;SDS011;74870;42.636;23.302;2024-02-16T07:33:39;10.57;;;8.43;;
49544;SDS011;74870;42.636;23.302;2024-02-16T07:36:05;9.03;;;7.73;;
49544;SDS011;74870;42.636;23.302;2024-02-16T07:38:31;9.07;;;7.63;;
49544;SDS011;74870;42.636;23.302;2024-02-16T07:40:56;9.70;;;7.20;;
49544;SDS011;74870;42.636;23.302;2024-02-16T07:43:22;8.80;;;6.57;;
49544;SDS011;74870;42.636;23.302;2024-02-16T07:45:49;8.80;;;6.77;;
49544;SDS011;74870;42.636;23.302;2024-02-16T07:48:15;9.27;;;5.33;;
49544;SDS011;74870;42.636;23.302;2024-02-16T07:50:40;8.97;;;5.77;;
49544;SDS011;74870;42.636;23.302;2024-02-16T07:53:06;7.03;;;5.40;;
49544;SDS011;74870;42.636;23.302;2024-02-16T07:55:31;6.33;;;5.57;;
49544;SDS011;74870;42.636;23.302;2024-02-16T07:57:57;6.30;;;5.77;;
49544;SDS011;74870;42.636;23.302;2024-02-16T08:00:22;7.87;;;6.47;;
49544;SDS011;74870;42.636;23.302;2024-02-16T08:02:48;7.40;;;6.70;;
49544;SDS011;74870;42.636;23.302;2024-02-16T08:05:13;7.83;;;5.70;;
49544;SDS011;74870;42.636;23.302;2024-02-16T08:07:39;7.43;;;6.33;;
49544;SDS011;74870;42.636;23.302;2024-02-16T08:10:07;7.20;;;5.90;;
49544;SDS011;74870;42.636;23.302;2024-02-16T08:12:34;8.87;;;5.37;;
49544;SDS011;74870;42.636;23.302;2024-02-16T08:15:00;6.90;;;5.30;;
49544;SDS011;74870;42.636;23.302;2024-02-16T08:17:26;5.97;;;5.17;;
49544;SDS011;74870;42.636;23.302;2024-02-16T08:19:52;6.23;;;5.63;;
49544;SDS011;74870;42.636;23.302;2024-02-16T08:22:19;7.67;;;6.87;;
49544;SDS011;74870;42.636;23.302;2024-02-16T08:24:45;7.53;;;6.83;;
49544;SDS011;74870;42.636;23.302;2024-02-16T08:27:11;9.83;;;6.30;;
49544;SDS011;74870;42.636;23.302;2024-02-16T08:29:37;7.57;;;6.83;;
49544;SDS011;74870;42.636;23.302;2024-02-16T08:32:03;8.80;;;7.20;;
49544;SDS011;74870;42.636;23.302;2024-02-16T08:34:30;8.93;;;6.37;;
49544;SDS011;74870;42.636;23.302;2024-02-16T08:36:56;6.97;;;5.70;;
49544;SDS011;74870;42.636;23.302;2024-02-16T08:39:22;7.77;;;7.03;;
49544;SDS011;74870;42.636;23.302;2024-02-16T08:41:50;9.67;;;7.40;;
49544;SDS011;74870;42.636;23.302;2024-02-16T08:44:18;9.50;;;7.77;;
49544;SDS011;74870;42.636;23.302;2024-02-16T08:46:44;7.73;;;6.93;;
49544;SDS011;74870;42.636;23.302;2024-02-16T08:49:11;9.23;;;6.60;;
49544;SDS011;74870;42.636;23.302;2024-02-16T08:51:36;9.73;;;6.70;;
49544;SDS011;74870;42.636;23.302;2024-02-16T08:54:02;10.30;;;9.20;;
49544;SDS011;74870;42.636;23.302;2024-02-16T08:56:29;11.43;;;8.83;;
49544;SDS011;74870;42.636;23.302;2024-02-16T08:58:55;13.40;;;9.50;;
49544;SDS011;74870;42.636;23.302;2024-02-16T09:01:33;13.57;;;8.40;;
49544;SDS011;74870;42.636;23.302;2024-02-16T09:04:02;8.50;;;6.73;;
49544;SDS011;74870;42.636;23.302;2024-02-16T09:06:28;14.07;;;9.70;;
49544;SDS011;74870;42.636;23.302;2024-02-16T09:08:54;13.63;;;9.20;;
49544;SDS011;74870;42.636;23.302;2024-02-16T09:11:20;9.23;;;7.53;;
49544;SDS011;74870;42.636;23.302;2024-02-16T09:13:45;10.80;;;7.50;;
49544;SDS011;74870;42.636;23.302;2024-02-16T09:16:11;9.53;;;7.80;;
49544;SDS011;74870;42.636;23.302;2024-02-16T09:18:36;7.27;;;6.50;;
49544;SDS011;74870;42.636;23.302;2024-02-16T09:21:04;11.10;;;7.27;;
49544;SDS011;74870;42.636;23.302;2024-02-16T09:23:31;11.17;;;9.10;;
49544;SDS011;74870;42.636;23.302;2024-02-16T09:25:57;10.87;;;7.60;;
49544;SDS011;74870;42.636;23.302;2024-02-16T09:28:24;11.93;;;8.30;;
49544;SDS011;74870;42.636;23.302;2024-02-16T09:30:49;8.87;;;7.60;;
49544;SDS011;74870;42.636;23.302;2024-02-16T09:33:15;7.83;;;6.87;;
49544;SDS011;74870;42.636;23.302;2024-02-16T09:35:40;9.63;;;7.53;;
49544;SDS011;74870;42.636;23.302;2024-02-16T09:38:06;5.93;;;5.40;;
49544;SDS011;74870;42.636;23.302;2024-02-16T09:40:31;8.53;;;6.63;;
49544;SDS011;74870;42.636;23.302;2024-02-16T09:42:57;10.27;;;8.30;;
49544;SDS011;74870;42.636;23.302;2024-02-16T09:45:23;8.57;;;7.33;;
49544;SDS011;74870;42.636;23.302;2024-02-16T09:47:51;8.93;;;7.83;;
49544;SDS011;74870;42.636;23.302;2024-02-16T09:50:17;8.23;;;7.43;;
49544;SDS011;74870;42.636;23.302;2024-02-16T09:52:46;7.97;;;7.17;;
49544;SDS011;74870;42.636;23.302;2024-02-16T09:55:14;10.03;;;8.50;;
49544;SDS011;74870;42.636;23.302;2024-02-16T09:57:40;7.30;;;6.60;;
49544;SDS011;74870;42.636;23.302;2024-02-16T10:00:06;13.80;;;7.93;;
49544;SDS011;74870;42.636;23.302;2024-02-16T10:02:45;7.43;;;6.07;;
49544;SDS011;74870;42.636;23.302;2024-02-16T10:05:12;4.83;;;4.50;;
49544;SDS011;74870;42.636;23.302;2024-02-16T10:07:42;9.50;;;6.13;;
49544;SDS011;74870;42.636;23.302;2024-02-16T10:10:24;7.20;;;6.43;;
49544;SDS011;74870;42.636;23.302;2024-02-16T10:12:50;7.90;;;7.10;;
49544;SDS011;74870;42.636;23.302;2024-02-16T10:15:26;12.60;;;9.63;;
49544;SDS011;74870;42.636;23.302;2024-02-16T10:18:27;9.50;;;7.43;;
49544;SDS011;74870;42.636;23.302;2024-02-16T10:20:44;8.03;;;7.03;;
49544;SDS011;74870;42.636;23.302;2024-02-16T10:23:10;7.73;;;7.00;;
49544;SDS011;74870;42.636;23.302;2024-02-16T10:25:40;11.53;;;8.43;;
49544;SDS011;74870;42.636;23.302;2024-02-16T10:28:09;6.97;;;6.30;;
49544;SDS011;74870;42.636;23.302;2024-02-16T10:30:39;8.70;;;6.50;;
49544;SDS011;74870;42.636;23.302;2024-02-16T10:33:05;9.37;;;7.13;;
49544;SDS011;74870;42.636;23.302;2024-02-16T10:35:32;7.60;;;6.10;;
49544;SDS011;74870;42.636;23.302;2024-02-16T10:38:00;7.00;;;6.40;;
49544;SDS011;74870;42.636;23.302;2024-02-16T10:40:30;15.67;;;11.00;;
49544;SDS011;74870;42.636;23.302;2024-02-16T10:42:57;10.90;;;8.17;;
49544;SDS011;74870;42.636;23.302;2024-02-16T10:45:29;7.63;;;6.00;;
49544;SDS011;74870;42.636;23.302;2024-02-16T10:47:56;7.27;;;6.03;;
49544;SDS011;74870;42.636;23.302;2024-02-16T10:50:21;8.03;;;6.83;;
49544;SDS011;74870;42.636;23.302;2024-02-16T10:52:48;8.43;;;6.97;;
49544;SDS011;74870;42.636;23.302;2024-02-16T10:55:15;7.80;;;7.00;;
49544;SDS011;74870;42.636;23.302;2024-02-16T10:57:40;8.03;;;7.27;;
49544;SDS011;74870;42.636;23.302;2024-02-16T11:00:09;7.67;;;6.90;;
49544;SDS011;74870;42.636;23.302;2024-02-16T11:02:54;7.70;;;6.90;;
49544;SDS011;74870;42.636;23.302;2024-02-16T11:05:34;7.50;;;6.80;;
49544;SDS011;74870;42.636;23.302;2024-02-16T11:08:01;8.90;;;7.23;;
49544;SDS011;74870;42.636;23.302;2024-02-16T11:10:30;7.20;;;6.50;;
49544;SDS011;74870;42.636;23.302;2024-02-16T11:13:00;6.70;;;6.00;;
49544;SDS011;74870;42.636;23.302;2024-02-16T11:15:28;7.00;;;6.40;;
49544;SDS011;74870;42.636;23.302;2024-02-16T11:17:56;6.90;;;5.57;;
49544;SDS011;74870;42.636;23.302;2024-02-16T11:20:25;6.40;;;5.70;;
49544;SDS011;74870;42.636;23.302;2024-02-16T11:22:53;6.30;;;5.70;;
49544;SDS011;74870;42.636;23.302;2024-02-16T11:25:30;6.10;;;5.50;;
49544;SDS011;74870;42.636;23.302;2024-02-16T11:27:56;6.60;;;5.47;;
49544;SDS011;74870;42.636;23.302;2024-02-16T11:30:23;5.87;;;5.30;;
49544;SDS011;74870;42.636;23.302;2024-02-16T11:32:48;6.20;;;4.97;;
49544;SDS011;74870;42.636;23.302;2024-02-16T11:35:13;5.67;;;5.17;;
49544;SDS011;74870;42.636;23.302;2024-02-16T11:37:39;5.20;;;4.80;;
49544;SDS011;74870;42.636;23.302;2024-02-16T11:40:05;5.57;;;5.10;;
49544;SDS011;74870;42.636;23.302;2024-02-16T11:42:33;5.60;;;5.07;;
49544;SDS011;74870;42.636;23.302;2024-02-16T11:44:59;5.20;;;4.77;;
49544;SDS011;74870;42.636;23.302;2024-02-16T11:47:25;5.70;;;5.20;;
49544;SDS011;74870;42.636;23.302;2024-02-16T11:50:03;6.00;;;5.50;;
49544;SDS011;74870;42.636;23.302;2024-02-16T11:52:30;7.80;;;5.70;;
49544;SDS011;74870;42.636;23.302;2024-02-16T11:54:56;6.90;;;5.60;;
49544;SDS011;74870;42.636;23.302;2024-02-16T11:57:25;6.43;;;5.83;;
49544;SDS011;74870;42.636;23.302;2024-02-16T11:59:51;8.57;;;6.20;;
49544;SDS011;74870;42.636;23.302;2024-02-16T12:02:17;6.77;;;6.17;;
49544;SDS011;74870;42.636;23.302;2024-02-16T12:04:47;6.80;;;6.20;;
49544;SDS011;74870;42.636;23.302;2024-02-16T12:07:13;7.40;;;5.67;;
49544;SDS011;74870;42.636;23.302;2024-02-16T12:09:39;8.00;;;6.00;;
49544;SDS011;74870;42.636;23.302;2024-02-16T12:12:05;7.53;;;5.80;;
49544;SDS011;74870;42.636;23.302;2024-02-16T12:14:31;6.90;;;6.10;;
49544;SDS011;74870;42.636;23.302;2024-02-16T12:16:58;7.30;;;6.27;;
49544;SDS011;74870;42.636;23.302;2024-02-16T12:19:24;11.50;;;6.90;;
49544;SDS011;74870;42.636;23.302;2024-02-16T12:21:54;10.13;;;6.47;;
49544;SDS011;74870;42.636;23.302;2024-02-16T12:24:23;8.93;;;6.70;;
49544;SDS011;74870;42.636;23.302;2024-02-16T12:26:49;9.03;;;6.93;;
49544;SDS011;74870;42.636;23.302;2024-02-16T12:29:15;7.10;;;6.40;;
49544;SDS011;74870;42.636;23.302;2024-02-16T12:31:42;7.07;;;5.73;;
49544;SDS011;74870;42.636;23.302;2024-02-16T12:34:09;6.57;;;5.97;;
49544;SDS011;74870;42.636;23.302;2024-02-16T12:36:35;7.03;;;6.33;;
49544;SDS011;74870;42.636;23.302;2024-02-16T12:39:02;6.17;;;5.57;;
49544;SDS011;74870;42.636;23.302;2024-02-16T12:41:29;7.70;;;5.73;;
49544;SDS011;74870;42.636;23.302;2024-02-16T12:43:55;6.83;;;5.67;;
49544;SDS011;74870;42.636;23.302;2024-02-16T12:46:21;6.87;;;6.07;;
49544;SDS011;74870;42.636;23.302;2024-02-16T12:48:46;6.30;;;5.70;;
49544;SDS011;74870;42.636;23.302;2024-02-16T12:51:12;5.73;;;5.33;;
49544;SDS011;74870;42.636;23.302;2024-02-16T12:53:37;6.80;;;6.10;;
49544;SDS011;74870;42.636;23.302;2024-02-16T12:56:08;6.47;;;5.60;;
49544;SDS011;74870;42.636;23.302;2024-02-16T12:58:35;6.17;;;5.57;;
49544;SDS011;74870;42.636;23.302;2024-02-16T13:01:02;6.53;;;5.30;;
49544;SDS011;74870;42.636;23.302;2024-02-16T13:03:34;6.37;;;5.77;;
49544;SDS011;74870;42.636;23.302;2024-02-16T13:05:59;6.00;;;5.40;;
49544;SDS011;74870;42.636;23.302;2024-02-16T13:08:25;6.50;;;5.80;;
49544;SDS011;74870;42.636;23.302;2024-02-16T13:10:50;6.00;;;5.50;;
49544;SDS011;74870;42.636;23.302;2024-02-16T13:13:16;6.83;;;5.67;;
49544;SDS011;74870;42.636;23.302;2024-02-16T13:15:41;6.27;;;5.67;;
49544;SDS011;74870;42.636;23.302;2024-02-16T13:18:06;6.43;;;5.87;;
49544;SDS011;74870;42.636;23.302;2024-02-16T13:20:32;6.73;;;5.97;;
49544;SDS011;74870;42.636;23.302;2024-02-16T13:22:59;6.87;;;6.00;;
49544;SDS011;74870;42.636;23.302;2024-02-16T13:25:25;6.10;;;5.57;;
49544;SDS011;74870;42.636;23.302;2024-02-16T13:27:50;6.83;;;6.10;;
49544;SDS011;74870;42.636;23.302;2024-02-16T13:30:15;8.17;;;6.27;;
49544;SDS011;74870;42.636;23.302;2024-02-16T13:32:41;5.80;;;5.27;;
49544;SDS011;74870;42.636;23.302;2024-02-16T13:35:06;6.03;;;5.43;;
49544;SDS011;74870;42.636;23.302;2024-02-16T13:37:32;6.83;;;5.50;;
49544;SDS011;74870;42.636;23.302;2024-02-16T13:39:57;6.53;;;5.87;;
49544;SDS011;74870;42.636;23.302;2024-02-16T13:42:23;6.27;;;5.67;;
49544;SDS011;74870;42.636;23.302;2024-02-16T13:44:49;6.27;;;5.53;;
49544;SDS011;74870;42.636;23.302;2024-02-16T13:47:14;6.43;;;5.83;;
49544;SDS011;74870;42.636;23.302;2024-02-16T13:49:40;6.93;;;6.27;;
49544;SDS011;74870;42.636;23.302;2024-02-16T13:52:05;6.97;;;6.23;;
49544;SDS011;74870;42.636;23.302;2024-02-16T13:54:31;6.90;;;6.17;;
49544;SDS011;74870;42.636;23.302;2024-02-16T13:56:56;8.23;;;5.63;;
49544;SDS011;74870;42.636;23.302;2024-02-16T13:59:22;5.90;;;5.40;;
49544;SDS011;74870;42.636;23.302;2024-02-16T14:01:47;9.43;;;6.53;;
49544;SDS011;74870;42.636;23.302;2024-02-16T14:04:13;7.03;;;6.23;;
49544;SDS011;74870;42.636;23.302;2024-02-16T14:06:39;7.20;;;6.40;;
49544;SDS011;74870;42.636;23.302;2024-02-16T14:09:04;7.10;;;6.40;;
49544;SDS011;74870;42.636;23.302;2024-02-16T14:11:36;9.87;;;6.80;;
49544;SDS011;74870;42.636;23.302;2024-02-16T14:14:02;6.97;;;6.27;;
49544;SDS011;74870;42.636;23.302;2024-02-16T14:16:28;11.00;;;6.90;;
49544;SDS011;74870;42.636;23.302;2024-02-16T14:18:53;7.03;;;6.40;;
49544;SDS011;74870;42.636;23.302;2024-02-16T14:21:19;7.77;;;5.77;;
49544;SDS011;74870;42.636;23.302;2024-02-16T14:23:44;7.07;;;5.57;;
49544;SDS011;74870;42.636;23.302;2024-02-16T14:26:09;6.90;;;5.00;;
49544;SDS011;74870;42.636;23.302;2024-02-16T14:28:36;9.83;;;7.03;;